sensor_id;sensor_type;location;lat;lon;timestamp;pressure;altitude;pressure_sealevel;temperature;humidity
37132;BME280;23035;50.032;21.978;2022-09-13T00:04:40;66424.06;;;11.99;100.00
37132;BME280;23035;50.032;21.978;2022-09-13T00:09:44;66414.84;;;11.88;100.00
37132;BME280;23035;50.032;21.978;2022-09-13T00:14:50;66450.84;;;12.22;100.00
37132;BME280;23035;50.032;21.978;2022-09-13T00:19:54;66398.09;;;11.70;100.00
37132;BME280;23035;50.032;21.978;2022-09-13T00:24:59;66398.19;;;11.72;100.00
37132;BME280;23035;50.032;21.978;2022-09-13T00:30:07;66376.09;;;11.49;100.00
37132;BME280;23035;50.032;21.978;2022-09-13T00:35:12;66452.97;;;12.24;100.00
37132;BME280;23035;50.032;21.978;2022-09-13T00:40:16;66471.78;;;12.42;100.00
37132;BME280;23035;50.032;21.978;2022-09-13T00:45:22;66431.50;;;12.04;100.00
37132;BME280;23035;50.032;21.978;2022-09-13T00:50:27;66420.69;;;11.91;100.00
37132;BME280;23035;50.032;21.978;2022-09-13T00:55:36;66420.59;;;11.89;100.00
37132;BME280;23035;50.032;21.978;2022-09-13T01:00:44;66504.00;;;12.73;100.00
37132;BME280;23035;50.032;21.978;2022-09-13T01:05:51;66553.00;;;13.22;100.00
37132;BME280;23035;50.032;21.978;2022-09-13T01:10:58;66623.25;;;13.83;100.00
37132;BME280;23035;50.032;21.978;2022-09-13T01:16:06;66562.13;;;13.30;100.00
37132;BME280;23035;50.032;21.978;2022-09-13T01:21:35;66474.63;;;12.50;100.00
37132;BME280;23035;50.032;21.978;2022-09-13T01:26:53;66495.78;;;12.60;100.00
37132;BME280;23035;50.032;21.978;2022-09-13T01:32:07;66502.94;;;12.72;100.00
37132;BME280;23035;50.032;21.978;2022-09-13T01:37:32;66602.34;;;13.66;100.00
37132;BME280;23035;50.032;21.978;2022-09-13T01:42:51;66546.44;;;13.13;100.00
37132;BME280;23035;50.032;21.978;2022-09-13T01:48:09;66620.72;;;13.86;100.00
37132;BME280;23035;50.032;21.978;2022-09-13T01:53:23;66649.59;;;14.08;100.00
37132;BME280;23035;50.032;21.978;2022-09-13T01:58:38;66657.28;;;14.20;100.00
37132;BME280;23035;50.032;21.978;2022-09-13T02:03:51;66646.44;;;14.07;100.00
37132;BME280;23035;50.032;21.978;2022-09-13T02:09:00;66638.31;;;13.97;100.00
37132;BME280;23035;50.032;21.978;2022-09-13T02:14:11;66637.31;;;13.99;100.00
37132;BME280;23035;50.032;21.978;2022-09-13T02:19:24;66575.50;;;13.40;100.00
37132;BME280;23035;50.032;21.978;2022-09-13T02:24:32;66520.19;;;12.90;100.00
37132;BME280;23035;50.032;21.978;2022-09-13T02:29:39;66601.81;;;13.65;100.00
37132;BME280;23035;50.032;21.978;2022-09-13T02:34:52;66623.25;;;13.83;100.00
37132;BME280;23035;50.032;21.978;2022-09-13T02:40:02;66613.72;;;13.79;100.00
37132;BME280;23035;50.032;21.978;2022-09-13T02:45:08;66637.22;;;13.96;100.00
37132;BME280;23035;50.032;21.978;2022-09-13T02:50:31;66643.06;;;13.99;100.00
37132;BME280;23035;50.032;21.978;2022-09-13T02:55:42;66666.34;;;14.26;100.00
37132;BME280;23035;50.032;21.978;2022-09-13T03:00:48;66644.84;;;14.06;100.00
37132;BME280;23035;50.032;21.978;2022-09-13T03:05:54;66568.88;;;13.29;100.00
37132;BME280;23035;50.032;21.978;2022-09-13T03:11:10;66490.56;;;12.60;100.00
37132;BME280;23035;50.032;21.978;2022-09-13T03:16:29;66440.09;;;12.12;100.00
37132;BME280;23035;50.032;21.978;2022-09-13T03:21:55;66477.66;;;12.48;100.00
37132;BME280;23035;50.032;21.978;2022-09-13T03:27:12;66441.09;;;12.11;100.00
37132;BME280;23035;50.032;21.978;2022-09-13T03:32:25;66423.53;;;11.99;100.00
37132;BME280;23035;50.032;21.978;2022-09-13T03:37:37;66540.91;;;13.03;100.00
37132;BME280;23035;50.032;21.978;2022-09-13T03:42:49;66545.38;;;13.12;100.00
37132;BME280;23035;50.032;21.978;2022-09-13T03:47:58;66549.13;;;13.15;100.00
37132;BME280;23035;50.032;21.978;2022-09-13T03:53:10;66486.28;;;12.56;100.00
37132;BME280;23035;50.032;21.978;2022-09-13T03:58:21;66494.34;;;12.63;100.00
37132;BME280;23035;50.032;21.978;2022-09-13T04:03:28;66489.50;;;12.59;100.00
37132;BME280;23035;50.032;21.978;2022-09-13T04:08:37;66496.47;;;12.66;100.00
37132;BME280;23035;50.032;21.978;2022-09-13T04:13:43;66522.19;;;12.87;100.00
37132;BME280;23035;50.032;21.978;2022-09-13T04:18:49;66507.75;;;12.76;100.00
37132;BME280;23035;50.032;21.978;2022-09-13T04:23:57;66483.06;;;12.53;100.00
37132;BME280;23035;50.032;21.978;2022-09-13T04:29:04;66351.50;;;11.28;100.00
37132;BME280;23035;50.032;21.978;2022-09-13T04:34:12;66421.84;;;11.95;100.00
37132;BME280;23035;50.032;21.978;2022-09-13T04:39:21;66425.69;;;12.01;100.00
37132;BME280;23035;50.032;21.978;2022-09-13T04:44:28;66364.47;;;11.43;100.00
37132;BME280;23035;50.032;21.978;2022-09-13T04:49:35;66371.88;;;11.47;100.00
37132;BME280;23035;50.032;21.978;2022-09-13T04:54:42;66381.09;;;11.59;100.00
37132;BME280;23035;50.032;21.978;2022-09-13T04:59:46;66434.72;;;12.07;100.00
37132;BME280;23035;50.032;21.978;2022-09-13T05:04:52;66534.63;;;13.02;100.00
37132;BME280;23035;50.032;21.978;2022-09-13T05:10:01;66584.63;;;13.49;100.00
37132;BME280;23035;50.032;21.978;2022-09-13T05:15:08;66612.56;;;13.75;100.00
37132;BME280;23035;50.032;21.978;2022-09-13T05:20:14;66667.50;;;14.30;100.00
37132;BME280;23035;50.032;21.978;2022-09-13T05:25:21;66777.25;;;15.34;100.00
37132;BME280;23035;50.032;21.978;2022-09-13T05:30:29;66604.50;;;13.68;100.00
37132;BME280;23035;50.032;21.978;2022-09-13T05:35:40;66647.53;;;14.09;100.00
37132;BME280;23035;50.032;21.978;2022-09-13T05:40:52;66656.13;;;14.17;100.00
37132;BME280;23035;50.032;21.978;2022-09-13T05:46:02;66661.50;;;14.22;100.00
37132;BME280;23035;50.032;21.978;2022-09-13T05:51:10;66654.91;;;14.11;100.00
37132;BME280;23035;50.032;21.978;2022-09-13T05:56:20;66616.88;;;13.80;100.00
37132;BME280;23035;50.032;21.978;2022-09-13T06:01:28;66571.09;;;13.34;100.00
37132;BME280;23035;50.032;21.978;2022-09-13T06:06:36;66609.75;;;13.68;100.00
37132;BME280;23035;50.032;21.978;2022-09-13T06:11:44;66597.53;;;13.61;100.00
37132;BME280;23035;50.032;21.978;2022-09-13T06:16:51;66605.06;;;13.68;100.00
37132;BME280;23035;50.032;21.978;2022-09-13T06:21:58;66624.84;;;13.85;100.00
37132;BME280;23035;50.032;21.978;2022-09-13T06:27:05;66597.06;;;13.63;100.00
37132;BME280;23035;50.032;21.978;2022-09-13T06:32:11;66605.13;;;13.71;100.00
37132;BME280;23035;50.032;21.978;2022-09-13T06:37:18;66708.31;;;14.66;100.00
37132;BME280;23035;50.032;21.978;2022-09-13T06:42:29;66703.47;;;14.61;100.00
37132;BME280;23035;50.032;21.978;2022-09-13T06:47:35;66713.75;;;14.74;100.00
37132;BME280;23035;50.032;21.978;2022-09-13T06:52:42;66728.91;;;14.90;100.00
37132;BME280;23035;50.032;21.978;2022-09-13T06:57:51;66804.19;;;15.59;100.00
37132;BME280;23035;50.032;21.978;2022-09-13T07:02:58;66738.38;;;14.92;100.00
37132;BME280;23035;50.032;21.978;2022-09-13T07:08:05;66767.50;;;15.22;100.00
37132;BME280;23035;50.032;21.978;2022-09-13T07:13:10;66779.19;;;15.28;100.00
37132;BME280;23035;50.032;21.978;2022-09-13T07:18:14;66783.13;;;15.37;100.00
37132;BME280;23035;50.032;21.978;2022-09-13T07:23:20;66917.75;;;16.64;100.00
37132;BME280;23035;50.032;21.978;2022-09-13T07:28:31;66823.50;;;15.75;100.00
37132;BME280;23035;50.032;21.978;2022-09-13T07:33:40;66777.59;;;15.27;100.00
37132;BME280;23035;50.032;21.978;2022-09-13T07:38:47;66802.09;;;15.60;100.00
37132;BME280;23035;50.032;21.978;2022-09-13T07:43:55;66896.13;;;16.41;100.00
37132;BME280;23035;50.032;21.978;2022-09-13T07:49:03;66991.53;;;17.31;100.00
37132;BME280;23035;50.032;21.978;2022-09-13T07:54:12;66964.59;;;17.06;100.00
37132;BME280;23035;50.032;21.978;2022-09-13T07:59:22;66878.84;;;16.22;100.00
37132;BME280;23035;50.032;21.978;2022-09-13T08:04:34;66969.56;;;17.15;100.00
37132;BME280;23035;50.032;21.978;2022-09-13T08:09:40;66972.34;;;17.20;100.00
37132;BME280;23035;50.032;21.978;2022-09-13T08:14:48;66901.06;;;16.48;100.00
37132;BME280;23035;50.032;21.978;2022-09-13T08:19:56;66893.59;;;16.44;100.00
37132;BME280;23035;50.032;21.978;2022-09-13T08:25:04;66947.88;;;16.90;100.00
37132;BME280;23035;50.032;21.978;2022-09-13T08:30:13;66999.69;;;17.41;100.00
37132;BME280;23035;50.032;21.978;2022-09-13T08:35:20;66981.91;;;17.25;100.00
37132;BME280;23035;50.032;21.978;2022-09-13T08:40:31;66964.06;;;17.05;100.00
37132;BME280;23035;50.032;21.978;2022-09-13T08:45:41;66940.41;;;16.85;100.00
37132;BME280;23035;50.032;21.978;2022-09-13T08:50:51;66913.97;;;16.60;100.00
37132;BME280;23035;50.032;21.978;2022-09-13T08:56:04;66893.59;;;16.44;100.00
37132;BME280;23035;50.032;21.978;2022-09-13T09:01:17;66981.38;;;17.24;100.00
37132;BME280;23035;50.032;21.978;2022-09-13T09:06:27;67030.88;;;17.68;90.60
37132;BME280;23035;50.032;21.978;2022-09-13T09:11:40;66933.34;;;16.76;81.25
37132;BME280;23035;50.032;21.978;2022-09-13T09:16:52;67042.44;;;17.87;75.87
37132;BME280;23035;50.032;21.978;2022-09-13T09:22:04;67065.56;;;18.06;71.02
37132;BME280;23035;50.032;21.978;2022-09-13T09:27:15;67075.75;;;18.13;66.48
37132;BME280;23035;50.032;21.978;2022-09-13T09:38:26;66946.88;;;16.91;71.71
37132;BME280;23035;50.032;21.978;2022-09-13T09:43:38;67039.69;;;17.82;71.26
37132;BME280;23035;50.032;21.978;2022-09-13T09:48:54;67205.88;;;19.38;65.16
37132;BME280;23035;50.032;21.978;2022-09-13T09:54:04;67272.22;;;19.98;62.43
37132;BME280;23035;50.032;21.978;2022-09-13T09:59:24;67157.28;;;18.92;64.30
37132;BME280;23035;50.032;21.978;2022-09-13T10:04:33;67114.66;;;18.52;66.56
37132;BME280;23035;50.032;21.978;2022-09-13T10:09:55;67135.16;;;18.72;65.72
37132;BME280;23035;50.032;21.978;2022-09-13T10:15:09;67193.91;;;19.25;63.61
37132;BME280;23035;50.032;21.978;2022-09-13T10:20:21;67125.97;;;18.63;64.69
37132;BME280;23035;50.032;21.978;2022-09-13T10:25:32;67389.47;;;21.09;57.63
37132;BME280;23035;50.032;21.978;2022-09-13T10:30:41;67190.53;;;19.16;62.82
37132;BME280;23035;50.032;21.978;2022-09-13T10:35:53;67199.19;;;19.25;64.28
37132;BME280;23035;50.032;21.978;2022-09-13T10:41:02;67195.47;;;19.24;63.32
37132;BME280;23035;50.032;21.978;2022-09-13T10:46:12;67218.75;;;19.48;63.20
37132;BME280;23035;50.032;21.978;2022-09-13T10:51:36;67216.56;;;19.46;63.25
37132;BME280;23035;50.032;21.978;2022-09-13T10:56:43;67181.03;;;19.15;64.63
37132;BME280;23035;50.032;21.978;2022-09-13T11:07:42;67279.72;;;20.03;61.11
37132;BME280;23035;50.032;21.978;2022-09-13T11:12:58;67227.41;;;19.56;63.67
37132;BME280;23035;50.032;21.978;2022-09-13T11:18:31;67203.09;;;19.33;64.21
37132;BME280;23035;50.032;21.978;2022-09-13T11:23:54;67180.47;;;19.14;63.10
37132;BME280;23035;50.032;21.978;2022-09-13T11:29:10;67318.13;;;20.42;59.47
37132;BME280;23035;50.032;21.978;2022-09-13T11:34:33;67187.38;;;19.16;64.14
37132;BME280;23035;50.032;21.978;2022-09-13T11:39:48;67297.00;;;20.19;61.73
37132;BME280;23035;50.032;21.978;2022-09-13T11:45:17;67315.97;;;20.40;60.96
37132;BME280;23035;50.032;21.978;2022-09-13T11:50:34;67286.25;;;20.12;62.82
37132;BME280;23035;50.032;21.978;2022-09-13T11:55:46;67326.19;;;20.47;61.75
37132;BME280;23035;50.032;21.978;2022-09-13T12:00:57;67397.09;;;21.18;60.86
37132;BME280;23035;50.032;21.978;2022-09-13T12:06:11;67301.94;;;20.26;61.63
37132;BME280;23035;50.032;21.978;2022-09-13T12:11:22;67391.56;;;21.08;60.09
37132;BME280;23035;50.032;21.978;2022-09-13T12:16:30;67416.63;;;21.39;57.94
37132;BME280;23035;50.032;21.978;2022-09-13T12:21:40;67380.28;;;21.00;60.71
37132;BME280;23035;50.032;21.978;2022-09-13T12:26:57;67366.72;;;20.85;64.12
37132;BME280;23035;50.032;21.978;2022-09-13T12:32:05;67282.50;;;20.08;63.09
37132;BME280;23035;50.032;21.978;2022-09-13T12:37:40;67390.53;;;21.10;62.36
37132;BME280;23035;50.032;21.978;2022-09-13T12:43:15;67279.31;;;20.08;63.34
37132;BME280;23035;50.032;21.978;2022-09-13T12:48:33;67348.94;;;20.71;60.84
37132;BME280;23035;50.032;21.978;2022-09-13T12:54:03;67359.81;;;20.83;60.50
37132;BME280;23035;50.032;21.978;2022-09-13T12:59:38;67379.75;;;21.00;59.98
37132;BME280;23035;50.032;21.978;2022-09-13T13:04:51;67271.69;;;19.98;62.52
37132;BME280;23035;50.032;21.978;2022-09-13T13:09:58;67273.84;;;20.00;62.88
37132;BME280;23035;50.032;21.978;2022-09-13T13:21:29;67225.69;;;19.52;67.87
37132;BME280;23035;50.032;21.978;2022-09-13T13:26:43;67240.38;;;19.68;67.61
37132;BME280;23035;50.032;21.978;2022-09-13T13:32:09;67292.22;;;20.17;67.62
37132;BME280;23035;50.032;21.978;2022-09-13T13:37:30;67286.31;;;20.14;65.78
37132;BME280;23035;50.032;21.978;2022-09-13T13:42:38;67361.31;;;20.80;63.84
37132;BME280;23035;50.032;21.978;2022-09-13T13:48:07;67231.72;;;19.60;65.91
37132;BME280;23035;50.032;21.978;2022-09-13T13:53:21;67252.19;;;19.77;67.09
37132;BME280;23035;50.032;21.978;2022-09-13T13:58:30;67297.59;;;20.22;63.76
37132;BME280;23035;50.032;21.978;2022-09-13T14:03:58;67470.59;;;21.85;58.72
37132;BME280;23035;50.032;21.978;2022-09-13T14:09:21;67604.25;;;23.11;53.59
37132;BME280;23035;50.032;21.978;2022-09-13T14:14:49;67733.16;;;24.35;49.83
37132;BME280;23035;50.032;21.978;2022-09-13T14:20:04;67653.56;;;23.60;51.22
37132;BME280;23035;50.032;21.978;2022-09-13T14:25:21;67607.53;;;23.16;52.92
37132;BME280;23035;50.032;21.978;2022-09-13T14:30:30;67530.16;;;22.44;54.87
37132;BME280;23035;50.032;21.978;2022-09-13T14:35:39;67348.41;;;20.70;60.22
37132;BME280;23035;50.032;21.978;2022-09-13T14:40:47;67341.78;;;20.59;61.42
37132;BME280;23035;50.032;21.978;2022-09-13T14:45:56;67319.69;;;20.41;62.10
37132;BME280;23035;50.032;21.978;2022-09-13T14:51:12;67394.88;;;21.14;60.38
37132;BME280;23035;50.032;21.978;2022-09-13T14:56:28;67257.16;;;19.87;65.30
37132;BME280;23035;50.032;21.978;2022-09-13T15:01:35;67272.75;;;19.99;67.03
37132;BME280;23035;50.032;21.978;2022-09-13T15:06:40;67219.09;;;19.41;68.13
37132;BME280;23035;50.032;21.978;2022-09-13T15:11:57;67187.91;;;19.16;70.35
37132;BME280;23035;50.032;21.978;2022-09-13T15:17:06;67199.25;;;19.27;71.27
37132;BME280;23035;50.032;21.978;2022-09-13T15:22:19;67306.72;;;20.28;67.99
37132;BME280;23035;50.032;21.978;2022-09-13T15:27:26;67281.88;;;20.05;69.08
37132;BME280;23035;50.032;21.978;2022-09-13T15:32:33;67261.53;;;19.93;68.34
37132;BME280;23035;50.032;21.978;2022-09-13T15:37:38;67291.59;;;20.14;68.58
37132;BME280;23035;50.032;21.978;2022-09-13T15:42:47;67212.22;;;19.39;73.30
37132;BME280;23035;50.032;21.978;2022-09-13T15:47:51;67127.59;;;18.65;76.58
37132;BME280;23035;50.032;21.978;2022-09-13T15:52:57;67210.59;;;19.38;73.78
37132;BME280;23035;50.032;21.978;2022-09-13T15:58:01;67152.97;;;18.88;75.46
37132;BME280;23035;50.032;21.978;2022-09-13T16:03:05;67253.81;;;19.79;72.65
37132;BME280;23035;50.032;21.978;2022-09-13T16:08:12;67287.88;;;20.13;69.84
37132;BME280;23035;50.032;21.978;2022-09-13T16:13:16;67295.31;;;20.15;69.36
37132;BME280;23035;50.032;21.978;2022-09-13T16:18:19;67307.31;;;20.31;68.18
37132;BME280;23035;50.032;21.978;2022-09-13T16:23:25;67286.19;;;20.09;69.39
37132;BME280;23035;50.032;21.978;2022-09-13T16:28:28;67234.91;;;19.61;72.39
37132;BME280;23035;50.032;21.978;2022-09-13T16:33:32;67262.09;;;19.94;71.14
37132;BME280;23035;50.032;21.978;2022-09-13T16:38:38;67258.13;;;19.83;71.43
37132;BME280;23035;50.032;21.978;2022-09-13T16:43:41;67214.97;;;19.44;74.34
37132;BME280;23035;50.032;21.978;2022-09-13T16:48:51;67216.03;;;19.45;75.04
37132;BME280;23035;50.032;21.978;2022-09-13T16:53:58;67235.97;;;19.62;75.85
37132;BME280;23035;50.032;21.978;2022-09-13T16:59:02;67217.69;;;19.47;76.97
37132;BME280;23035;50.032;21.978;2022-09-13T17:04:06;67240.81;;;19.66;76.51
37132;BME280;23035;50.032;21.978;2022-09-13T17:09:13;67216.53;;;19.43;77.17
37132;BME280;23035;50.032;21.978;2022-09-13T17:14:17;67215.97;;;19.43;77.59
37132;BME280;23035;50.032;21.978;2022-09-13T17:19:26;67161.53;;;18.94;80.77
37132;BME280;23035;50.032;21.978;2022-09-13T17:24:33;67167.88;;;18.95;81.30
37132;BME280;23035;50.032;21.978;2022-09-13T17:29:38;67212.75;;;19.40;79.09
37132;BME280;23035;50.032;21.978;2022-09-13T17:34:42;67140.44;;;18.72;82.03
37132;BME280;23035;50.032;21.978;2022-09-13T17:39:47;67131.41;;;18.68;82.10
37132;BME280;23035;50.032;21.978;2022-09-13T17:44:51;67160.34;;;18.88;79.61
37132;BME280;23035;50.032;21.978;2022-09-13T17:49:55;67149.53;;;18.78;80.84
37132;BME280;23035;50.032;21.978;2022-09-13T17:55:01;67154.44;;;18.85;81.89
37132;BME280;23035;50.032;21.978;2022-09-13T18:00:06;67100.47;;;18.34;84.20
37132;BME280;23035;50.032;21.978;2022-09-13T18:05:10;67054.09;;;17.90;85.43
37132;BME280;23035;50.032;21.978;2022-09-13T18:10:16;67076.81;;;18.14;87.89
37132;BME280;23035;50.032;21.978;2022-09-13T18:15:40;67126.97;;;18.61;84.65
37132;BME280;23035;50.032;21.978;2022-09-13T18:20:44;67089.63;;;18.21;86.09
37132;BME280;23035;50.032;21.978;2022-09-13T18:26:01;67111.28;;;18.44;83.21
37132;BME280;23035;50.032;21.978;2022-09-13T18:31:12;67115.56;;;18.48;84.30
37132;BME280;23035;50.032;21.978;2022-09-13T18:36:17;67136.09;;;18.68;81.03
37132;BME280;23035;50.032;21.978;2022-09-13T18:41:24;67110.66;;;18.41;83.00
37132;BME280;23035;50.032;21.978;2022-09-13T18:46:31;67137.72;;;18.69;82.04
37132;BME280;23035;50.032;21.978;2022-09-13T18:51:36;67079.38;;;18.12;85.83
37132;BME280;23035;50.032;21.978;2022-09-13T18:56:41;67091.72;;;18.21;86.09
37132;BME280;23035;50.032;21.978;2022-09-13T19:01:45;67007.22;;;17.48;90.82
37132;BME280;23035;50.032;21.978;2022-09-13T19:06:52;67089.22;;;18.26;85.52
37132;BME280;23035;50.032;21.978;2022-09-13T19:11:58;67043.94;;;17.83;87.03
37132;BME280;23035;50.032;21.978;2022-09-13T19:17:03;67102.03;;;18.33;83.23
37132;BME280;23035;50.032;21.978;2022-09-13T19:22:07;67062.31;;;18.03;82.99
37132;BME280;23035;50.032;21.978;2022-09-13T19:27:12;67005.56;;;17.44;88.41
37132;BME280;23035;50.032;21.978;2022-09-13T19:32:16;67068.59;;;18.01;84.93
37132;BME280;23035;50.032;21.978;2022-09-13T19:37:20;67009.25;;;17.45;87.05
37132;BME280;23035;50.032;21.978;2022-09-13T19:42:25;67040.06;;;17.77;85.93
37132;BME280;23035;50.032;21.978;2022-09-13T19:47:29;66979.66;;;17.20;87.87
37132;BME280;23035;50.032;21.978;2022-09-13T19:52:53;67019.03;;;17.57;85.57
37132;BME280;23035;50.032;21.978;2022-09-13T19:57:58;67074.59;;;18.10;82.32
37132;BME280;23035;50.032;21.978;2022-09-13T20:03:03;66977.38;;;17.13;87.33
37132;BME280;23035;50.032;21.978;2022-09-13T20:08:07;66993.06;;;17.30;85.78
37132;BME280;23035;50.032;21.978;2022-09-13T20:13:12;67018.50;;;17.57;85.29
37132;BME280;23035;50.032;21.978;2022-09-13T20:18:17;67011.56;;;17.53;83.63
37132;BME280;23035;50.032;21.978;2022-09-13T20:23:22;66964.06;;;17.05;87.98
37132;BME280;23035;50.032;21.978;2022-09-13T20:28:27;67037.44;;;17.77;82.18
37132;BME280;23035;50.032;21.978;2022-09-13T20:33:31;67027.72;;;17.68;81.89
37132;BME280;23035;50.032;21.978;2022-09-13T20:38:38;67027.59;;;17.63;81.83
37132;BME280;23035;50.032;21.978;2022-09-13T20:43:44;67014.78;;;17.56;83.64
37132;BME280;23035;50.032;21.978;2022-09-13T20:48:48;67023.41;;;17.64;82.64
37132;BME280;23035;50.032;21.978;2022-09-13T20:53:53;66961.34;;;17.03;86.12
37132;BME280;23035;50.032;21.978;2022-09-13T20:58:58;66928.84;;;16.67;88.36
37132;BME280;23035;50.032;21.978;2022-09-13T21:04:02;67012.03;;;17.51;84.06
37132;BME280;23035;50.032;21.978;2022-09-13T21:09:07;67042.63;;;17.74;81.17
37132;BME280;23035;50.032;21.978;2022-09-13T21:14:12;66989.38;;;17.29;84.15
37132;BME280;23035;50.032;21.978;2022-09-13T21:19:16;67020.63;;;17.59;82.14
37132;BME280;23035;50.032;21.978;2022-09-13T21:24:21;66993.22;;;17.35;81.94
37132;BME280;23035;50.032;21.978;2022-09-13T21:29:26;66956.44;;;16.96;85.28
37132;BME280;23035;50.032;21.978;2022-09-13T21:34:30;67037.91;;;17.75;82.59
37132;BME280;23035;50.032;21.978;2022-09-13T21:39:34;67035.28;;;17.75;82.28
37132;BME280;23035;50.032;21.978;2022-09-13T21:44:39;66956.44;;;16.96;85.76
37132;BME280;23035;50.032;21.978;2022-09-13T21:49:43;66942.44;;;16.82;85.31
37132;BME280;23035;50.032;21.978;2022-09-13T21:54:47;66934.41;;;16.77;85.96
37132;BME280;23035;50.032;21.978;2022-09-13T21:59:53;66940.78;;;16.81;84.20
37132;BME280;23035;50.032;21.978;2022-09-13T22:04:57;66986.00;;;17.21;82.96
37132;BME280;23035;50.032;21.978;2022-09-13T22:10:01;66989.91;;;17.30;83.48
37132;BME280;23035;50.032;21.978;2022-09-13T22:15:08;66999.69;;;17.41;81.67
37132;BME280;23035;50.032;21.978;2022-09-13T22:20:12;66929.03;;;16.72;85.99
37132;BME280;23035;50.032;21.978;2022-09-13T22:25:16;66967.91;;;17.11;84.37
37132;BME280;23035;50.032;21.978;2022-09-13T22:30:21;66966.19;;;17.07;83.84
37132;BME280;23035;50.032;21.978;2022-09-13T22:35:25;66951.56;;;16.91;85.08
37132;BME280;23035;50.032;21.978;2022-09-13T22:40:30;66958.59;;;16.98;84.93
37132;BME280;23035;50.032;21.978;2022-09-13T22:45:35;66953.81;;;16.96;84.64
37132;BME280;23035;50.032;21.978;2022-09-13T22:50:40;67006.16;;;17.47;82.36
37132;BME280;23035;50.032;21.978;2022-09-13T22:55:44;67032.06;;;17.72;80.00
37132;BME280;23035;50.032;21.978;2022-09-13T23:00:50;67077.88;;;18.15;78.73
37132;BME280;23035;50.032;21.978;2022-09-13T23:05:53;67028.78;;;17.69;79.54
37132;BME280;23035;50.032;21.978;2022-09-13T23:11:07;67011.41;;;17.47;81.70
37132;BME280;23035;50.032;21.978;2022-09-13T23:16:15;67022.81;;;17.61;81.78
37132;BME280;23035;50.032;21.978;2022-09-13T23:21:22;66896.06;;;16.39;87.09
37132;BME280;23035;50.032;21.978;2022-09-13T23:26:27;66960.88;;;17.05;83.91
37132;BME280;23035;50.032;21.978;2022-09-13T23:31:34;67047.03;;;17.81;80.08
37132;BME280;23035;50.032;21.978;2022-09-13T23:36:41;67013.72;;;17.55;81.11
37132;BME280;23035;50.032;21.978;2022-09-13T23:41:47;67040.59;;;17.77;80.02
37132;BME280;23035;50.032;21.978;2022-09-13T23:46:54;67012.41;;;17.46;82.73
37132;BME280;23035;50.032;21.978;2022-09-13T23:51:57;66918.25;;;16.62;86.94
37132;BME280;23035;50.032;21.978;2022-09-13T23:57:02;66972.13;;;17.13;85.97
